Time;durP1;ratioP1;P1;durP2;ratioP2;P2;SDS_P1;SDS_P2;PMS_P1;PMS_P2;Temp;Humidity;BMP_temperature;BMP_pressure;BME280_temperature;BME280_humidity;BME280_pressure;Samples;Min_cycle;Max_cycle;Signal;HPM_P1;HPM_P2
2023/04/15 00:01:57;;;;;;;;;;;6.50;99.90;;;;;;5074457;28;19974;-77
2023/04/15 00:04:22;;;;;;;;;;;6.50;99.90;;;;;;5091638;28;19924;-77
2023/04/15 00:06:52;;;;;;;;;;;6.40;99.90;;;;;;5075896;28;19946;-77
2023/04/15 00:09:18;;;;;;;;;;;6.40;99.90;;;;;;5076058;28;20457;-77
2023/04/15 00:11:44;;;;;;;;;;;6.40;99.90;;;;;;5076828;28;19924;-76
2023/04/15 00:14:10;;;;;;;;;;;6.40;99.90;;;;;;5080635;28;19924;-76
2023/04/15 00:16:36;;;;;;;;;;;6.40;99.90;;;;;;5092106;28;19946;-77
2023/04/15 00:19:01;;;;;;;;;;;6.40;99.90;;;;;;5076292;28;19940;-77
2023/04/15 00:21:27;;;;;;;;;;;6.30;99.90;;;;;;5093309;28;19928;-77
2023/04/15 00:23:53;;;;;;;;;;;6.30;99.90;;;;;;5076892;28;20424;-76
2023/04/15 00:26:19;;;;;;;;;;;6.30;99.90;;;;;;5075918;28;19925;-76
2023/04/15 00:28:45;;;;;;;;;;;6.20;99.90;;;;;;5093974;28;19924;-77
2023/04/15 00:31:11;;;;;;;;;;;6.20;99.90;;;;;;5093700;28;19925;-77
2023/04/15 00:33:36;;;;;;;;;;;6.10;99.90;;;;;;5058080;28;20455;-77
2023/04/15 00:36:02;;;;;;;;;;;6.10;99.90;;;;;;5073208;28;19986;-77
2023/04/15 00:38:28;;;;;;;;;;;6.00;99.90;;;;;;5091055;28;19935;-77
2023/04/15 00:40:55;;;;;;;;;;;6.00;99.90;;;;;;5092942;28;19924;-77
2023/04/15 00:43:20;;;;;;;;;;;6.00;99.90;;;;;;5092111;28;19928;-77
2023/04/15 00:45:46;;;;;;;;;;;6.00;99.90;;;;;;5074763;28;19928;-77
2023/04/15 00:48:12;;;;;;;;;;;5.90;99.90;;;;;;5091089;28;19955;-77
2023/04/15 00:50:37;;;;;;;;;;;5.90;99.90;;;;;;5092803;28;19924;-77
2023/04/15 00:53:03;;;;;;;;;;;5.90;99.90;;;;;;5058937;28;19932;-77
2023/04/15 00:55:29;;;;;;;;;;;5.90;99.90;;;;;;5078602;28;19931;-77
2023/04/15 00:57:55;;;;;;;;;;;5.80;99.90;;;;;;5067868;28;19934;-77
2023/04/15 01:00:21;;;;;;;;;;;5.80;99.90;;;;;;5074122;28;20145;-77
2023/04/15 01:02:47;;;;;;;;;;;5.80;99.90;;;;;;5093589;28;19984;-77
2023/04/15 01:05:16;;;;;;;;;;;5.80;99.90;;;;;;5061229;28;19929;-77
2023/04/15 01:07:42;;;;;;;;;;;5.80;99.90;;;;;;5074863;28;20030;-77
2023/04/15 01:10:07;;;;;;;;;;;5.70;99.90;;;;;;5092809;28;19968;-77
2023/04/15 01:12:34;;;;;;;;;;;5.70;99.90;;;;;;5074753;28;20046;-77
2023/04/15 01:15:00;;;;;;;;;;;5.60;99.90;;;;;;5093176;28;20419;-77
2023/04/15 01:17:26;;;;;;;;;;;5.60;99.90;;;;;;5057771;28;19996;-77
2023/04/15 01:19:51;;;;;;;;;;;5.50;99.90;;;;;;5077659;28;19928;-77
2023/04/15 01:22:17;;;;;;;;;;;5.50;99.90;;;;;;5066977;28;20011;-77
2023/04/15 01:24:51;;;;;;;;;;;5.40;99.90;;;;;;5090240;28;19935;-77
2023/04/15 01:27:16;;;;;;;;;;;5.40;99.90;;;;;;5106892;28;19944;-77
2023/04/15 01:29:42;;;;;;;;;;;5.40;99.90;;;;;;5091473;28;20015;-77
2023/04/15 01:32:07;;;;;;;;;;;5.30;99.90;;;;;;5075747;28;19932;-77
2023/04/15 01:34:33;;;;;;;;;;;5.30;99.90;;;;;;5075014;28;19956;-77
2023/04/15 01:36:59;;;;;;;;;;;5.30;99.90;;;;;;5088470;28;19930;-77
2023/04/15 01:39:24;;;;;;;;;;;5.30;99.90;;;;;;5068481;28;19939;-77
2023/04/15 01:41:50;;;;;;;;;;;5.30;99.90;;;;;;5091581;28;20017;-77
2023/04/15 01:44:15;;;;;;;;;;;5.30;99.90;;;;;;5075330;28;19925;-77
2023/04/15 01:46:41;;;;;;;;;;;5.30;99.90;;;;;;5077918;28;19932;-77
2023/04/15 01:49:07;;;;;;;;;;;5.30;99.90;;;;;;5092197;28;20471;-77
2023/04/15 01:51:33;;;;;;;;;;;5.20;99.90;;;;;;5079053;28;20260;-77
2023/04/15 01:53:58;;;;;;;;;;;5.20;99.90;;;;;;5079634;28;20279;-77
2023/04/15 01:56:24;;;;;;;;;;;5.20;99.90;;;;;;5077396;28;20061;-77
2023/04/15 01:58:49;;;;;;;;;;;5.20;99.90;;;;;;5064392;28;19924;-77
2023/04/15 02:01:18;;;;;;;;;;;5.20;99.90;;;;;;5095862;28;20043;-77
2023/04/15 02:03:44;;;;;;;;;;;5.10;99.90;;;;;;5078523;28;19935;-77
2023/04/15 02:06:10;;;;;;;;;;;5.10;99.90;;;;;;5062571;28;19969;-77
2023/04/15 02:08:35;;;;;;;;;;;5.10;99.90;;;;;;5073967;28;19929;-77
2023/04/15 02:11:01;;;;;;;;;;;5.10;99.90;;;;;;5078102;28;19932;-77
2023/04/15 02:13:26;;;;;;;;;;;5.10;99.90;;;;;;5079175;28;19925;-77
2023/04/15 02:15:53;;;;;;;;;;;5.00;99.90;;;;;;5095203;28;19929;-77
2023/04/15 02:18:19;;;;;;;;;;;5.00;99.90;;;;;;5069393;28;20286;-77
2023/04/15 02:20:45;;;;;;;;;;;5.00;99.90;;;;;;5062632;28;19925;-77
2023/04/15 02:23:11;;;;;;;;;;;5.00;99.90;;;;;;5053099;28;19975;-77
2023/04/15 02:25:37;;;;;;;;;;;5.00;99.90;;;;;;5091305;28;19924;-77
2023/04/15 02:28:05;;;;;;;;;;;5.00;99.90;;;;;;5095246;28;19924;-76
2023/04/15 02:30:31;;;;;;;;;;;5.00;99.90;;;;;;5092420;28;19932;-77
2023/04/15 02:32:56;;;;;;;;;;;5.00;99.90;;;;;;5054584;28;19924;-77
2023/04/15 02:35:24;;;;;;;;;;;4.90;99.90;;;;;;5069778;28;19958;-77
2023/04/15 02:37:50;;;;;;;;;;;4.90;99.90;;;;;;5054501;28;19983;-76
2023/04/15 02:40:16;;;;;;;;;;;4.90;99.90;;;;;;5093142;28;19954;-77
2023/04/15 02:42:43;;;;;;;;;;;4.90;99.90;;;;;;5094442;28;19932;-77
2023/04/15 02:45:09;;;;;;;;;;;4.90;99.90;;;;;;5095524;28;19928;-76
2023/04/15 02:47:35;;;;;;;;;;;4.90;99.90;;;;;;5094594;28;19925;-77
2023/04/15 02:50:03;;;;;;;;;;;4.90;99.90;;;;;;5045609;28;19935;-77
2023/04/15 02:52:29;;;;;;;;;;;4.90;99.90;;;;;;5076642;28;19924;-77
2023/04/15 02:54:59;;;;;;;;;;;4.80;99.90;;;;;;5094596;28;20391;-76
2023/04/15 02:57:28;;;;;;;;;;;4.80;99.90;;;;;;5091147;28;20328;-76
2023/04/15 02:59:53;;;;;;;;;;;4.70;99.90;;;;;;5064915;28;19931;-77
2023/04/15 03:02:19;;;;;;;;;;;4.70;99.90;;;;;;5079398;28;19955;-77
2023/04/15 03:04:45;;;;;;;;;;;4.70;99.90;;;;;;5075486;28;19939;-76
2023/04/15 03:07:10;;;;;;;;;;;4.60;99.90;;;;;;5079357;28;21367;-77
2023/04/15 03:09:38;;;;;;;;;;;4.60;99.90;;;;;;5077854;28;20371;-76
2023/04/15 03:12:04;;;;;;;;;;;4.60;99.90;;;;;;5078301;28;20419;-76
2023/04/15 03:14:29;;;;;;;;;;;4.60;99.90;;;;;;5092804;28;19957;-76
2023/04/15 03:16:55;;;;;;;;;;;4.60;99.90;;;;;;5094280;28;20426;-77
2023/04/15 03:19:21;;;;;;;;;;;4.60;99.90;;;;;;5077056;28;19985;-76
2023/04/15 03:21:46;;;;;;;;;;;4.60;99.90;;;;;;5076453;28;20295;-77
2023/04/15 03:24:12;;;;;;;;;;;4.60;99.90;;;;;;5076191;28;19950;-76
2023/04/15 03:26:37;;;;;;;;;;;4.60;99.90;;;;;;5076616;28;19935;-76
2023/04/15 03:29:03;;;;;;;;;;;4.60;99.90;;;;;;5064036;28;20043;-76
2023/04/15 03:31:28;;;;;;;;;;;4.60;99.90;;;;;;5095213;28;19932;-76
2023/04/15 03:33:54;;;;;;;;;;;4.60;99.90;;;;;;5094092;28;19942;-76
2023/04/15 03:36:20;;;;;;;;;;;4.60;99.90;;;;;;5076088;28;19927;-77
2023/04/15 03:38:45;;;;;;;;;;;4.60;99.90;;;;;;5092939;28;20372;-77
2023/04/15 03:41:11;;;;;;;;;;;4.60;99.90;;;;;;5077518;28;19936;-77
2023/04/15 03:43:36;;;;;;;;;;;4.60;99.90;;;;;;5091745;28;19933;-76
2023/04/15 03:46:02;;;;;;;;;;;4.50;99.90;;;;;;5075135;28;19925;-76
2023/04/15 03:48:28;;;;;;;;;;;4.50;99.90;;;;;;5044092;28;19924;-77
2023/04/15 03:50:53;;;;;;;;;;;4.60;99.90;;;;;;5079779;28;19924;-77
2023/04/15 03:53:21;;;;;;;;;;;4.60;99.90;;;;;;5094198;28;19971;-77
2023/04/15 03:55:46;;;;;;;;;;;4.60;99.90;;;;;;5076668;28;19972;-77
2023/04/15 03:58:12;;;;;;;;;;;4.50;99.90;;;;;;5076853;28;19924;-76
2023/04/15 04:00:41;;;;;;;;;;;4.50;99.90;;;;;;5086397;28;20011;-76
2023/04/15 04:03:06;;;;;;;;;;;4.50;99.90;;;;;;5077604;28;20391;-76
2023/04/15 04:05:32;;;;;;;;;;;4.50;99.90;;;;;;5090815;28;19946;-76
2023/04/15 04:07:58;;;;;;;;;;;4.50;99.90;;;;;;5053308;28;19988;-77
2023/04/15 04:10:23;;;;;;;;;;;4.50;99.90;;;;;;5089727;28;19924;-77
2023/04/15 04:12:49;;;;;;;;;;;4.40;99.90;;;;;;5077353;28;19928;-76
2023/04/15 04:15:14;;;;;;;;;;;4.40;99.90;;;;;;5094395;28;19986;-77
2023/04/15 04:17:41;;;;;;;;;;;4.40;99.90;;;;;;5075176;28;19995;-77
2023/04/15 04:20:06;;;;;;;;;;;4.40;99.90;;;;;;5078561;28;19939;-76
2023/04/15 04:22:36;;;;;;;;;;;4.40;99.90;;;;;;5046042;28;19928;-76
2023/04/15 04:25:01;;;;;;;;;;;4.40;99.90;;;;;;5092796;28;19995;-77
2023/04/15 04:27:27;;;;;;;;;;;4.40;99.90;;;;;;5063470;28;19932;-77
2023/04/15 04:29:53;;;;;;;;;;;4.40;99.90;;;;;;5066830;28;19930;-77
2023/04/15 04:32:18;;;;;;;;;;;4.40;99.90;;;;;;5077281;28;19925;-77
2023/04/15 04:34:44;;;;;;;;;;;4.40;99.90;;;;;;5092099;28;20387;-77
2023/04/15 04:37:10;;;;;;;;;;;4.40;99.90;;;;;;5076376;28;20023;-77
2023/04/15 04:39:35;;;;;;;;;;;4.40;99.90;;;;;;5076915;28;19925;-77
2023/04/15 04:42:01;;;;;;;;;;;4.40;99.90;;;;;;5081051;28;19987;-76
2023/04/15 04:44:26;;;;;;;;;;;4.40;99.90;;;;;;5077460;28;20369;-77
2023/04/15 04:46:52;;;;;;;;;;;4.30;99.90;;;;;;5092259;28;19946;-76
2023/04/15 04:49:17;;;;;;;;;;;4.30;99.90;;;;;;5093065;28;19925;-76
2023/04/15 04:51:43;;;;;;;;;;;4.30;99.90;;;;;;5076944;28;19924;-76
2023/04/15 04:54:09;;;;;;;;;;;4.30;99.90;;;;;;5062570;28;19924;-76
2023/04/15 04:56:34;;;;;;;;;;;4.30;99.90;;;;;;5074235;28;19955;-76
2023/04/15 04:59:00;;;;;;;;;;;4.40;99.90;;;;;;5075637;28;19932;-76
2023/04/15 05:01:26;;;;;;;;;;;4.40;99.90;;;;;;5091912;28;19950;-77
2023/04/15 05:03:52;;;;;;;;;;;4.40;99.90;;;;;;5074648;28;19977;-76
2023/04/15 05:06:17;;;;;;;;;;;4.40;99.90;;;;;;5059689;28;19925;-76
2023/04/15 05:08:43;;;;;;;;;;;4.40;99.90;;;;;;5058814;28;19924;-76
2023/04/15 05:11:08;;;;;;;;;;;4.40;99.90;;;;;;5060566;28;19925;-76
2023/04/15 05:13:37;;;;;;;;;;;4.50;99.90;;;;;;5074076;28;19925;-76
2023/04/15 05:16:06;;;;;;;;;;;4.50;99.90;;;;;;5076482;28;19971;-76
2023/04/15 05:18:32;;;;;;;;;;;4.50;99.90;;;;;;5091446;28;20087;-76
2023/04/15 05:20:58;;;;;;;;;;;4.50;99.90;;;;;;5060692;28;19971;-76
2023/04/15 05:23:23;;;;;;;;;;;4.50;99.90;;;;;;5078141;28;19925;-76
2023/04/15 05:25:49;;;;;;;;;;;4.50;99.90;;;;;;5073898;28;19925;-76
2023/04/15 05:28:14;;;;;;;;;;;4.50;99.90;;;;;;5096676;28;20536;-76
2023/04/15 05:30:40;;;;;;;;;;;4.60;99.90;;;;;;5080428;28;19925;-76
2023/04/15 05:33:05;;;;;;;;;;;4.70;99.90;;;;;;5046859;28;19931;-76
2023/04/15 05:35:31;;;;;;;;;;;4.70;99.90;;;;;;5081584;28;19963;-76
2023/04/15 05:37:57;;;;;;;;;;;4.90;99.90;;;;;;5078788;28;19999;-76
2023/04/15 05:40:23;;;;;;;;;;;5.00;99.90;;;;;;5078740;28;19925;-76
2023/04/15 05:42:48;;;;;;;;;;;5.00;99.90;;;;;;5049584;28;19929;-76
2023/04/15 05:45:14;;;;;;;;;;;5.10;99.90;;;;;;5065405;28;19936;-77
2023/04/15 05:47:39;;;;;;;;;;;5.20;99.90;;;;;;5095745;28;19943;-76
2023/04/15 05:50:05;;;;;;;;;;;5.30;99.90;;;;;;5078995;28;19924;-77
2023/04/15 05:52:31;;;;;;;;;;;5.30;99.90;;;;;;5081593;28;19924;-76
2023/04/15 05:54:56;;;;;;;;;;;5.30;99.90;;;;;;5064908;28;19946;-77
2023/04/15 05:57:22;;;;;;;;;;;5.40;99.90;;;;;;5078691;28;19932;-77
2023/04/15 05:59:48;;;;;;;;;;;5.40;99.90;;;;;;5077628;28;19963;-76
2023/04/15 06:02:13;;;;;;;;;;;5.50;99.90;;;;;;5063100;28;19924;-76
2023/04/15 06:04:39;;;;;;;;;;;5.60;99.90;;;;;;5078196;28;19935;-77
2023/04/15 06:07:05;;;;;;;;;;;5.60;99.90;;;;;;5081169;28;20046;-77
2023/04/15 06:09:30;;;;;;;;;;;5.70;99.90;;;;;;5046955;28;19925;-76
2023/04/15 06:11:56;;;;;;;;;;;5.80;99.90;;;;;;5079052;28;20032;-77
2023/04/15 06:14:22;;;;;;;;;;;5.90;99.90;;;;;;5063971;28;19932;-77
2023/04/15 06:16:47;;;;;;;;;;;5.90;99.90;;;;;;5076917;28;19924;-77
2023/04/15 06:19:13;;;;;;;;;;;6.00;99.90;;;;;;5094276;28;19924;-77
2023/04/15 06:21:39;;;;;;;;;;;6.10;99.90;;;;;;5076211;28;19929;-77
2023/04/15 06:24:05;;;;;;;;;;;6.10;99.90;;;;;;5094830;28;19925;-77
2023/04/15 06:26:30;;;;;;;;;;;6.20;99.90;;;;;;5094247;28;19990;-77
2023/04/15 06:28:56;;;;;;;;;;;6.30;99.90;;;;;;5082753;28;19947;-76
2023/04/15 06:31:21;;;;;;;;;;;6.30;99.90;;;;;;5072501;28;19940;-77
2023/04/15 06:33:47;;;;;;;;;;;6.40;99.90;;;;;;5092309;28;19931;-77
2023/04/15 06:36:13;;;;;;;;;;;6.50;99.90;;;;;;5072902;28;20406;-77
2023/04/15 06:38:38;;;;;;;;;;;6.60;99.90;;;;;;5086604;28;19925;-78
2023/04/15 06:41:04;;;;;;;;;;;6.70;99.90;;;;;;5064968;28;19924;-77
2023/04/15 06:43:29;;;;;;;;;;;6.80;99.90;;;;;;5044205;28;19924;-77
2023/04/15 06:45:56;;;;;;;;;;;7.00;99.90;;;;;;5095295;28;19947;-78
2023/04/15 06:48:22;;;;;;;;;;;7.10;99.90;;;;;;5095016;28;20051;-77
2023/04/15 06:50:50;;;;;;;;;;;7.20;99.90;;;;;;5077877;28;19929;-76
2023/04/15 06:53:16;;;;;;;;;;;7.40;99.90;;;;;;5077968;28;19924;-77
2023/04/15 06:55:41;;;;;;;;;;;7.50;99.90;;;;;;5090781;28;19938;-78
2023/04/15 06:58:07;;;;;;;;;;;7.60;99.90;;;;;;5060713;28;19982;-78
2023/04/15 07:00:32;;;;;;;;;;;7.70;99.90;;;;;;5056716;28;19930;-78
2023/04/15 07:03:02;;;;;;;;;;;7.90;99.90;;;;;;5062590;28;19971;-78
2023/04/15 07:05:28;;;;;;;;;;;8.00;99.90;;;;;;5078448;28;20026;-77
2023/04/15 07:07:54;;;;;;;;;;;8.20;99.90;;;;;;5066210;28;19931;-78
2023/04/15 07:10:20;;;;;;;;;;;8.30;99.90;;;;;;5063877;28;19924;-78
2023/04/15 07:12:46;;;;;;;;;;;8.40;99.90;;;;;;5054733;28;19954;-78
2023/04/15 07:15:12;;;;;;;;;;;8.50;99.90;;;;;;5103095;28;19928;-78
2023/04/15 07:17:37;;;;;;;;;;;8.70;99.90;;;;;;5073029;28;19931;-78
2023/04/15 07:20:03;;;;;;;;;;;8.80;99.90;;;;;;5078090;28;19924;-78
2023/04/15 07:22:29;;;;;;;;;;;8.90;99.90;;;;;;5064759;28;19924;-79
2023/04/15 07:24:55;;;;;;;;;;;8.90;99.90;;;;;;5092689;28;19925;-79
2023/04/15 07:27:20;;;;;;;;;;;9.00;99.90;;;;;;5043830;28;19928;-79
2023/04/15 07:29:46;;;;;;;;;;;8.90;99.90;;;;;;5040967;28;19924;-79
2023/04/15 07:32:11;;;;;;;;;;;9.00;99.90;;;;;;5076772;28;19932;-78
2023/04/15 07:34:37;;;;;;;;;;;9.10;99.90;;;;;;5072746;28;19972;-78
2023/04/15 07:37:03;;;;;;;;;;;9.20;99.90;;;;;;5075303;28;19924;-78
2023/04/15 07:39:28;;;;;;;;;;;9.20;99.90;;;;;;5065922;28;19929;-79
2023/04/15 07:41:55;;;;;;;;;;;9.20;99.90;;;;;;5075428;28;19925;-78
2023/04/15 07:44:20;;;;;;;;;;;9.20;99.90;;;;;;5049551;28;20023;-79
2023/04/15 07:46:46;;;;;;;;;;;9.20;99.90;;;;;;5056127;28;19928;-78
2023/04/15 07:49:12;;;;;;;;;;;9.40;99.90;;;;;;5056268;28;19995;-78
2023/04/15 07:51:37;;;;;;;;;;;9.40;99.90;;;;;;5074951;28;19995;-78
2023/04/15 07:54:03;;;;;;;;;;;9.50;99.90;;;;;;5040898;28;19990;-77
2023/04/15 07:56:29;;;;;;;;;;;9.70;99.90;;;;;;5089525;28;19929;-78
2023/04/15 07:58:54;;;;;;;;;;;9.70;99.90;;;;;;5039781;28;19925;-78
2023/04/15 08:01:20;;;;;;;;;;;9.80;99.90;;;;;;5092353;28;19951;-78
2023/04/15 08:03:45;;;;;;;;;;;9.80;99.90;;;;;;5066486;28;20409;-78
2023/04/15 08:06:11;;;;;;;;;;;9.80;99.90;;;;;;5062812;28;19950;-79
2023/04/15 08:08:37;;;;;;;;;;;9.80;99.90;;;;;;5077239;28;19924;-79
2023/04/15 08:11:02;;;;;;;;;;;9.80;99.90;;;;;;5077011;28;19924;-78
2023/04/15 08:13:28;;;;;;;;;;;9.80;99.90;;;;;;5094280;28;19925;-78
2023/04/15 08:16:13;;;;;;;;;;;9.80;99.90;;;;;;5075715;28;20367;-78
2023/04/15 08:18:39;;;;;;;;;;;9.80;99.90;;;;;;5076540;28;19924;-78
2023/04/15 08:21:05;;;;;;;;;;;9.80;99.90;;;;;;5073755;28;19996;-77
2023/04/15 08:23:31;;;;;;;;;;;9.80;99.90;;;;;;5076620;28;19986;-77
2023/04/15 08:25:57;;;;;;;;;;;9.80;99.90;;;;;;5042314;28;19925;-78
2023/04/15 08:28:22;;;;;;;;;;;9.90;99.90;;;;;;5089902;28;19931;-78
2023/04/15 08:30:48;;;;;;;;;;;9.90;99.90;;;;;;5077035;28;19928;-78
2023/04/15 08:33:13;;;;;;;;;;;10.00;99.90;;;;;;5076932;28;19924;-78
2023/04/15 08:35:39;;;;;;;;;;;10.10;99.90;;;;;;5077576;28;19924;-79
2023/04/15 08:38:04;;;;;;;;;;;10.20;99.90;;;;;;5044263;28;19929;-78
2023/04/15 08:40:34;;;;;;;;;;;10.30;99.90;;;;;;5090198;28;19931;-79
2023/04/15 08:43:02;;;;;;;;;;;10.50;99.90;;;;;;5074612;28;19925;-78
2023/04/15 08:45:28;;;;;;;;;;;10.70;99.90;;;;;;5076059;28;19971;-78
2023/04/15 08:47:55;;;;;;;;;;;10.70;99.90;;;;;;5089989;28;19954;-78
2023/04/15 08:50:21;;;;;;;;;;;10.70;99.90;;;;;;5057500;28;20493;-78
2023/04/15 08:52:47;;;;;;;;;;;10.60;99.90;;;;;;5090831;28;20379;-76
2023/04/15 08:55:13;;;;;;;;;;;10.60;99.90;;;;;;5040867;28;19928;-80
2023/04/15 08:57:38;;;;;;;;;;;10.90;99.90;;;;;;5090333;28;19925;-79
2023/04/15 09:00:04;;;;;;;;;;;11.20;99.90;;;;;;5073998;28;19957;-79
2023/04/15 09:02:30;;;;;;;;;;;11.40;99.90;;;;;;5044120;28;19970;-80
2023/04/15 09:04:56;;;;;;;;;;;11.40;99.90;;;;;;5076308;28;19951;-80
2023/04/15 09:07:22;;;;;;;;;;;11.40;99.90;;;;;;5064254;28;19935;-81
2023/04/15 09:09:48;;;;;;;;;;;11.20;99.90;;;;;;5092890;28;19964;-82
2023/04/15 09:12:15;;;;;;;;;;;11.20;99.90;;;;;;5090991;28;19924;-83
2023/04/15 09:14:42;;;;;;;;;;;11.00;99.90;;;;;;5075850;28;19975;-81
2023/04/15 09:17:10;;;;;;;;;;;10.90;99.90;;;;;;5108173;28;19931;-74
2023/04/15 09:19:35;;;;;;;;;;;10.80;99.90;;;;;;5074704;28;19924;-77
2023/04/15 09:22:01;;;;;;;;;;;10.70;99.90;;;;;;5069077;28;19947;-77
2023/04/15 09:24:38;;;;;;;;;;;10.60;99.90;;;;;;5068148;28;19924;-74
2023/04/15 09:27:03;;;;;;;;;;;10.50;99.90;;;;;;5089225;28;19925;-74
2023/04/15 09:29:30;;;;;;;;;;;10.30;99.90;;;;;;5073023;28;20432;-74
2023/04/15 09:31:55;;;;;;;;;;;10.20;99.90;;;;;;5089616;28;19935;-75
2023/04/15 09:34:33;;;;;;;;;;;10.20;99.90;;;;;;5059370;28;19928;-74
2023/04/15 09:36:59;;;;;;;;;;;10.20;99.90;;;;;;5070667;28;20007;-74
2023/04/15 09:39:25;;;;;;;;;;;10.20;99.90;;;;;;5086112;28;19979;-74
2023/04/15 09:42:04;;;;;;;;;;;10.30;99.90;;;;;;5074274;28;19931;-74
2023/04/15 09:44:30;;;;;;;;;;;10.20;99.90;;;;;;5054684;28;19932;-74
2023/04/15 09:46:55;;;;;;;;;;;10.20;99.90;;;;;;5088842;28;20541;-74
2023/04/15 09:49:22;;;;;;;;;;;10.20;99.90;;;;;;5090096;28;20001;-74
2023/04/15 09:51:48;;;;;;;;;;;10.20;99.90;;;;;;5076191;28;19924;-74
2023/04/15 09:54:17;;;;;;;;;;;10.20;99.90;;;;;;5093143;28;19932;-75
2023/04/15 09:56:44;;;;;;;;;;;10.20;99.90;;;;;;5080568;28;19951;-74
2023/04/15 09:59:10;;;;;;;;;;;10.20;99.90;;;;;;5071437;28;19924;-74
2023/04/15 10:01:35;;;;;;;;;;;10.10;99.90;;;;;;5087707;28;19924;-74
2023/04/15 10:04:05;;;;;;;;;;;9.90;99.90;;;;;;5056404;28;19933;-73
2023/04/15 10:06:30;;;;;;;;;;;9.90;99.90;;;;;;5082776;28;20711;-75
2023/04/15 10:08:59;;;;;;;;;;;9.80;99.90;;;;;;5038310;28;19939;-80
2023/04/15 10:11:27;;;;;;;;;;;9.80;99.90;;;;;;5091652;28;19935;-79
2023/04/15 10:13:53;;;;;;;;;;;9.90;99.90;;;;;;5090594;28;19928;-79
2023/04/15 10:16:19;;;;;;;;;;;10.10;99.90;;;;;;5078525;28;20482;-78
2023/04/15 10:18:46;;;;;;;;;;;10.30;99.90;;;;;;5094635;28;20363;-78
2023/04/15 10:21:17;;;;;;;;;;;10.40;99.90;;;;;;5092882;28;19945;-80
2023/04/15 10:23:44;;;;;;;;;;;10.40;99.90;;;;;;5091973;28;19998;-80
2023/04/15 10:26:11;;;;;;;;;;;10.40;99.90;;;;;;5094808;28;19924;-78
2023/04/15 10:28:37;;;;;;;;;;;10.30;99.90;;;;;;5093066;28;19979;-79
2023/04/15 10:31:03;;;;;;;;;;;10.30;99.90;;;;;;5094049;28;20826;-79
2023/04/15 10:33:29;;;;;;;;;;;10.30;99.90;;;;;;5094578;28;19928;-79
2023/04/15 10:35:55;;;;;;;;;;;10.30;99.90;;;;;;5095225;28;20470;-80
2023/04/15 10:38:37;;;;;;;;;;;10.20;99.90;;;;;;5090640;28;19928;-80
2023/04/15 10:41:17;;;;;;;;;;;10.10;99.90;;;;;;5054365;28;20430;-79
2023/04/15 10:43:50;;;;;;;;;;;10.20;99.90;;;;;;5070786;28;19933;-80
2023/04/15 10:46:17;;;;;;;;;;;10.30;99.90;;;;;;5077355;28;19969;-79
2023/04/15 10:48:50;;;;;;;;;;;10.50;99.90;;;;;;5094255;28;20350;-80
2023/04/15 10:51:16;;;;;;;;;;;10.60;99.90;;;;;;5092881;28;19924;-80
2023/04/15 10:53:41;;;;;;;;;;;10.60;99.90;;;;;;5094094;28;19992;-80
2023/04/15 10:56:08;;;;;;;;;;;10.60;99.90;;;;;;5043533;28;19924;-80
2023/04/15 10:58:41;;;;;;;;;;;10.50;99.90;;;;;;5059151;28;19976;-80
2023/04/15 11:01:06;;;;;;;;;;;10.50;99.90;;;;;;5089478;28;19928;-80
2023/04/15 11:03:36;;;;;;;;;;;10.50;99.90;;;;;;5078983;28;20003;-80
2023/04/15 11:06:02;;;;;;;;;;;10.50;99.90;;;;;;5073977;28;19928;-80
2023/04/15 11:08:47;;;;;;;;;;;10.50;99.90;;;;;;5093265;28;19925;-80
2023/04/15 11:11:12;;;;;;;;;;;10.50;99.90;;;;;;5095107;28;19990;-80
2023/04/15 11:13:46;;;;;;;;;;;10.50;99.90;;;;;;5080268;28;19925;-80
2023/04/15 11:16:12;;;;;;;;;;;10.50;99.90;;;;;;5095521;28;19932;-79
2023/04/15 11:18:38;;;;;;;;;;;10.50;99.90;;;;;;5085591;28;19935;-80
2023/04/15 11:21:05;;;;;;;;;;;10.50;99.90;;;;;;5087750;28;19924;-80
2023/04/15 11:23:32;;;;;;;;;;;10.50;99.90;;;;;;5076861;28;19924;-80
2023/04/15 11:25:58;;;;;;;;;;;10.50;99.90;;;;;;5093702;28;19928;-80
2023/04/15 11:28:25;;;;;;;;;;;10.50;99.90;;;;;;5094605;28;19924;-82
2023/04/15 11:30:51;;;;;;;;;;;10.50;99.90;;;;;;5075850;28;19931;-81
2023/04/15 11:33:17;;;;;;;;;;;10.50;99.90;;;;;;5059308;28;20015;-80
2023/04/15 11:35:42;;;;;;;;;;;10.50;99.90;;;;;;5093905;28;20254;-81
2023/04/15 11:38:10;;;;;;;;;;;10.50;99.90;;;;;;5075687;28;19995;-80
2023/04/15 11:40:36;;;;;;;;;;;10.60;99.90;;;;;;5091217;28;19931;-80
2023/04/15 11:43:05;;;;;;;;;;;10.60;99.90;;;;;;5059641;28;19928;-79
2023/04/15 11:45:30;;;;;;;;;;;10.60;99.90;;;;;;5093241;28;19999;-80
2023/04/15 11:48:06;;;;;;;;;;;10.60;99.90;;;;;;5077595;28;19979;-80
2023/04/15 11:50:32;;;;;;;;;;;10.70;99.90;;;;;;5071445;28;19939;-80
2023/04/15 11:53:00;;;;;;;;;;;10.70;99.90;;;;;;5093258;28;19924;-79
2023/04/15 11:55:25;;;;;;;;;;;10.60;99.90;;;;;;5090815;28;19924;-80
2023/04/15 11:58:10;;;;;;;;;;;10.50;99.90;;;;;;5072863;28;19969;-80
2023/04/15 12:00:36;;;;;;;;;;;10.50;99.90;;;;;;5058958;28;19924;-80
2023/04/15 12:03:11;;;;;;;;;;;10.40;99.90;;;;;;5076389;28;19933;-79
2023/04/15 12:05:57;;;;;;;;;;;10.50;99.90;;;;;;5061154;28;19930;-79
2023/04/15 12:08:23;;;;;;;;;;;10.40;99.90;;;;;;5060641;28;19932;-79
2023/04/15 12:10:48;;;;;;;;;;;10.30;99.90;;;;;;5077727;28;19939;-78
2023/04/15 12:13:14;;;;;;;;;;;10.30;99.90;;;;;;5059730;28;19974;-79
2023/04/15 12:15:39;;;;;;;;;;;10.30;99.90;;;;;;5038431;28;19935;-79
2023/04/15 12:18:05;;;;;;;;;;;10.30;99.90;;;;;;5064033;28;19962;-78
2023/04/15 12:20:30;;;;;;;;;;;10.20;99.90;;;;;;5063894;28;19925;-78
2023/04/15 12:23:04;;;;;;;;;;;10.20;99.90;;;;;;5077806;28;20621;-78
2023/04/15 12:25:34;;;;;;;;;;;10.20;99.90;;;;;;5090336;28;19934;-79
2023/04/15 12:27:59;;;;;;;;;;;10.30;99.90;;;;;;5076303;28;20012;-78
2023/04/15 12:30:25;;;;;;;;;;;10.30;99.90;;;;;;5054079;28;19924;-78
2023/04/15 12:32:51;;;;;;;;;;;10.20;99.90;;;;;;5077609;28;19967;-79
2023/04/15 12:35:18;;;;;;;;;;;10.20;99.90;;;;;;5059489;28;19928;-78
2023/04/15 12:37:43;;;;;;;;;;;10.20;99.90;;;;;;5072881;28;19925;-78
2023/04/15 12:40:09;;;;;;;;;;;10.30;99.90;;;;;;5054077;28;19967;-79
2023/04/15 12:42:35;;;;;;;;;;;10.40;99.90;;;;;;5076087;28;19925;-78
2023/04/15 12:45:01;;;;;;;;;;;10.50;99.90;;;;;;5093112;28;20354;-78
2023/04/15 12:47:26;;;;;;;;;;;10.50;99.90;;;;;;5055414;28;20398;-78
2023/04/15 12:49:52;;;;;;;;;;;10.60;99.90;;;;;;5067622;28;19933;-79
2023/04/15 12:52:18;;;;;;;;;;;10.50;99.90;;;;;;5088532;28;19924;-79
2023/04/15 12:54:43;;;;;;;;;;;10.40;99.90;;;;;;5041566;28;19924;-80
2023/04/15 12:57:09;;;;;;;;;;;10.40;99.90;;;;;;5093117;28;19924;-80
2023/04/15 12:59:35;;;;;;;;;;;10.40;99.90;;;;;;5078873;28;19932;-80
2023/04/15 13:02:01;;;;;;;;;;;10.30;99.90;;;;;;5062938;28;19931;-80
2023/04/15 13:04:29;;;;;;;;;;;10.30;99.90;;;;;;5076019;28;19924;-79
2023/04/15 13:06:55;;;;;;;;;;;10.30;99.90;;;;;;5093819;28;19931;-80
2023/04/15 13:09:20;;;;;;;;;;;10.20;99.90;;;;;;5076386;28;19987;-80
2023/04/15 13:11:46;;;;;;;;;;;10.20;99.90;;;;;;5072769;28;19924;-80
2023/04/15 13:14:11;;;;;;;;;;;10.10;99.90;;;;;;5076932;28;19939;-81
2023/04/15 13:16:37;;;;;;;;;;;10.10;99.90;;;;;;5076067;28;19979;-79
2023/04/15 13:19:03;;;;;;;;;;;10.10;99.90;;;;;;5060203;28;19929;-80
2023/04/15 13:21:30;;;;;;;;;;;10.10;99.90;;;;;;5092110;28;19931;-80
2023/04/15 13:23:56;;;;;;;;;;;10.20;99.90;;;;;;5093808;28;20158;-79
2023/04/15 13:26:22;;;;;;;;;;;10.30;99.90;;;;;;5076139;28;19960;-79
2023/04/15 13:28:47;;;;;;;;;;;10.30;99.90;;;;;;5092982;28;19932;-80
2023/04/15 13:31:13;;;;;;;;;;;10.30;99.90;;;;;;5093075;28;19924;-79
2023/04/15 13:33:38;;;;;;;;;;;10.10;99.90;;;;;;5092870;28;19935;-79
2023/04/15 13:36:04;;;;;;;;;;;10.10;99.90;;;;;;5076520;28;19963;-79
2023/04/15 13:38:30;;;;;;;;;;;10.00;99.90;;;;;;5092442;28;19970;-79
2023/04/15 13:40:55;;;;;;;;;;;9.90;99.90;;;;;;5094589;28;19931;-79
2023/04/15 13:43:21;;;;;;;;;;;10.00;99.90;;;;;;5096056;28;20407;-79
2023/04/15 13:45:47;;;;;;;;;;;10.00;99.90;;;;;;5080566;28;19964;-79
2023/04/15 13:48:12;;;;;;;;;;;10.00;99.90;;;;;;5063918;28;19954;-79
2023/04/15 13:50:38;;;;;;;;;;;10.10;99.90;;;;;;5096797;28;20295;-79
2023/04/15 13:53:04;;;;;;;;;;;10.10;99.90;;;;;;5042000;28;19928;-79
2023/04/15 13:55:30;;;;;;;;;;;10.10;99.90;;;;;;5073069;28;19992;-78
2023/04/15 13:57:55;;;;;;;;;;;10.20;99.90;;;;;;5060363;28;19932;-78
2023/04/15 14:00:21;;;;;;;;;;;10.10;99.90;;;;;;5087559;28;19963;-78
2023/04/15 14:02:47;;;;;;;;;;;10.00;99.90;;;;;;5068635;28;19928;-78
2023/04/15 14:05:12;;;;;;;;;;;9.90;99.90;;;;;;5084424;28;19939;-79
2023/04/15 14:07:38;;;;;;;;;;;9.90;99.90;;;;;;5080703;28;19930;-78
2023/04/15 14:10:04;;;;;;;;;;;9.90;99.90;;;;;;5079054;28;19925;-78
2023/04/15 14:12:29;;;;;;;;;;;9.90;99.90;;;;;;5058524;28;20415;-79
2023/04/15 14:14:55;;;;;;;;;;;9.80;99.90;;;;;;5094510;28;20011;-79
2023/04/15 14:17:21;;;;;;;;;;;9.80;99.90;;;;;;5072921;28;19924;-79
2023/04/15 14:19:46;;;;;;;;;;;9.80;99.90;;;;;;5065019;28;19940;-79
2023/04/15 14:22:12;;;;;;;;;;;9.80;99.90;;;;;;5065306;28;19943;-78